Time;durP1;ratioP1;P1;durP2;ratioP2;P2;SDS_P1;SDS_P2;PMS_P1;PMS_P2;Temp;Humidity;BMP_temperature;BMP_pressure;BME280_temperature;BME280_humidity;BME280_pressure;Samples;Min_cycle;Max_cycle;Signal;HPM_P1;HPM_P2
2022/05/16 00:00:26;;;;;;;27.67;25.77;;;18.10;65.40;;;;;;5135371;27;20447;-72
2022/05/16 00:02:54;;;;;;;26.77;25.17;;;18.20;65.60;;;;;;5136809;27;20447;-72
2022/05/16 00:05:21;;;;;;;27.93;26.13;;;18.10;66.20;;;;;;5146879;27;20478;-72
2022/05/16 00:07:48;;;;;;;27.10;25.53;;;18.10;66.40;;;;;;5139739;27;20448;-72
2022/05/16 00:10:17;;;;;;;28.10;26.30;;;18.10;66.60;;;;;;5146887;27;20479;-72
2022/05/16 00:12:44;;;;;;;28.00;26.40;;;18.00;66.90;;;;;;5140130;27;20542;-72
2022/05/16 00:15:13;;;;;;;27.50;25.83;;;17.80;67.00;;;;;;5135041;27;20493;-72
2022/05/16 00:17:42;;;;;;;27.83;26.20;;;17.80;66.90;;;;;;5151178;27;20542;-72
2022/05/16 00:20:10;;;;;;;27.63;26.03;;;17.80;67.10;;;;;;5146538;27;20848;-72
2022/05/16 00:22:37;;;;;;;27.30;25.80;;;17.80;66.70;;;;;;5132272;27;20798;-72
2022/05/16 00:25:06;;;;;;;27.63;26.03;;;17.70;66.70;;;;;;5141963;27;20626;-72
2022/05/16 00:27:34;;;;;;;27.80;26.17;;;17.80;66.80;;;;;;5148579;27;20455;-72
2022/05/16 00:30:01;;;;;;;27.13;25.63;;;17.70;67.00;;;;;;5145152;27;20574;-72
2022/05/16 00:32:28;;;;;;;28.43;26.60;;;17.70;66.90;;;;;;5141164;27;20451;-72
2022/05/16 00:34:57;;;;;;;28.10;26.60;;;17.60;67.20;;;;;;5135973;27;20555;-72
2022/05/16 00:37:24;;;;;;;27.37;25.77;;;17.60;67.20;;;;;;5132220;27;20463;-72
2022/05/16 00:39:51;;;;;;;26.47;25.07;;;17.60;67.30;;;;;;5137506;27;20878;-72
2022/05/16 00:42:19;;;;;;;26.60;25.10;;;17.60;67.60;;;;;;5137627;27;20448;-72
2022/05/16 00:44:46;;;;;;;26.90;25.40;;;17.50;67.90;;;;;;5129284;27;20497;-72
2022/05/16 00:47:14;;;;;;;26.10;24.80;;;17.40;68.00;;;;;;5144242;27;20509;-72
2022/05/16 00:49:44;;;;;;;27.60;26.10;;;17.40;68.10;;;;;;5130958;27;20482;-72
2022/05/16 00:52:17;;;;;;;26.60;25.20;;;17.50;67.90;;;;;;5144835;27;20455;-72
2022/05/16 00:54:49;;;;;;;26.57;25.10;;;17.40;68.20;;;;;;5139170;27;20474;-73
2022/05/16 00:57:19;;;;;;;26.80;25.40;;;17.40;68.20;;;;;;5145402;27;20459;-73
2022/05/16 00:59:52;;;;;;;26.90;25.40;;;17.40;68.30;;;;;;5150664;27;20447;-73
2022/05/16 01:05:07;;;;;;;27.70;26.10;;;17.40;68.60;;;;;;5131994;27;21009;-73
2022/05/16 01:07:37;;;;;;;27.30;25.80;;;17.30;69.00;;;;;;5141826;27;20461;-72
2022/05/16 01:10:07;;;;;;;27.77;26.07;;;17.30;68.90;;;;;;5147849;27;20576;-72
2022/05/16 01:12:37;;;;;;;27.60;26.00;;;17.20;69.30;;;;;;5150482;27;20491;-72
2022/05/16 01:15:08;;;;;;;27.10;25.70;;;17.20;69.60;;;;;;5137978;27;20467;-72
2022/05/16 01:17:35;;;;;;;27.07;25.57;;;17.20;69.60;;;;;;5136990;27;20553;-71
2022/05/16 01:20:02;;;;;;;26.53;25.13;;;17.10;69.80;;;;;;5131158;27;20455;-71
2022/05/16 01:22:34;;;;;;;26.70;25.10;;;17.00;70.10;;;;;;5149692;27;20455;-71
2022/05/16 01:25:07;;;;;;;26.67;25.27;;;17.00;70.20;;;;;;5146080;27;20475;-72
2022/05/16 01:27:50;;;;;;;28.10;26.50;;;17.00;70.40;;;;;;5145223;27;20455;-71
2022/05/16 01:30:20;;;;;;;27.53;26.03;;;17.00;70.50;;;;;;5138949;27;20470;-71
2022/05/16 01:32:47;;;;;;;26.93;25.53;;;16.90;70.70;;;;;;5144299;27;20813;-71
2022/05/16 01:35:19;;;;;;;26.73;25.33;;;16.90;70.80;;;;;;5138476;27;20474;-71
2022/05/16 01:40:32;;;;;;;27.90;26.27;;;16.70;70.90;;;;;;5139882;27;20465;-71
2022/05/16 01:42:58;;;;;;;27.93;26.20;;;16.70;71.00;;;;;;5138906;27;20985;-71
2022/05/16 01:45:25;;;;;;;28.50;26.80;;;16.70;71.00;;;;;;5142186;27;21121;-71
2022/05/16 01:47:52;;;;;;;27.87;26.17;;;16.70;70.60;;;;;;5146715;27;20450;-71
2022/05/16 01:50:19;;;;;;;27.20;25.50;;;16.70;70.80;;;;;;5149463;27;21136;-71
2022/05/16 01:52:48;;;;;;;27.03;25.53;;;16.70;70.50;;;;;;5143454;27;20440;-71
2022/05/16 01:55:15;;;;;;;28.13;26.63;;;16.70;70.40;;;;;;5143804;27;20844;-72
2022/05/16 01:57:42;;;;;;;27.83;26.20;;;16.70;70.00;;;;;;5133569;27;20456;-72
2022/05/16 02:00:12;;;;;;;26.90;25.40;;;16.70;69.90;;;;;;5135677;27;20534;-71
2022/05/16 02:02:42;;;;;;;28.50;26.17;;;16.80;69.60;;;;;;5146034;27;20451;-71
2022/05/16 02:05:10;;;;;;;27.83;26.07;;;16.70;69.60;;;;;;5146227;27;20833;-71
2022/05/16 02:07:37;;;;;;;26.67;25.17;;;16.80;69.50;;;;;;5134710;27;20456;-72
2022/05/16 02:10:07;;;;;;;26.73;25.33;;;16.80;69.90;;;;;;5144433;27;20997;-71
2022/05/16 02:12:34;;;;;;;26.50;24.90;;;16.70;70.20;;;;;;5146083;27;20457;-71
2022/05/16 02:15:01;;;;;;;26.23;24.80;;;16.70;70.20;;;;;;5145584;27;20466;-71
2022/05/16 02:17:28;;;;;;;27.17;25.67;;;16.70;69.90;;;;;;5134704;27;20451;-71
2022/05/16 02:19:55;;;;;;;26.70;25.20;;;16.70;69.80;;;;;;5137024;27;20487;-71
2022/05/16 02:25:09;;;;;;;26.63;25.13;;;16.80;68.80;;;;;;5146739;27;20473;-71
2022/05/16 02:27:36;;;;;;;26.40;24.87;;;16.90;68.80;;;;;;5147331;27;20549;-71
2022/05/16 02:30:04;;;;;;;28.27;26.60;;;16.80;69.10;;;;;;5152293;27;20891;-71
2022/05/16 02:32:31;;;;;;;26.60;24.90;;;16.90;68.90;;;;;;5142433;27;20950;-71
2022/05/16 02:34:57;;;;;;;26.97;25.47;;;16.80;69.10;;;;;;5141959;27;20670;-71
2022/05/16 02:37:25;;;;;;;26.57;24.90;;;16.80;69.30;;;;;;5138550;27;20542;-71
2022/05/16 02:39:52;;;;;;;27.73;26.10;;;16.90;69.10;;;;;;5132424;27;20944;-71
2022/05/16 02:42:20;;;;;;;26.90;25.20;;;16.90;68.50;;;;;;5132872;27;20471;-71
2022/05/16 02:44:47;;;;;;;26.43;24.93;;;16.90;68.40;;;;;;5143446;27;20486;-71
2022/05/16 02:47:15;;;;;;;27.17;25.53;;;16.90;68.20;;;;;;5137979;27;20461;-71
2022/05/16 02:49:42;;;;;;;27.37;25.60;;;17.00;68.20;;;;;;5143026;27;20482;-71
2022/05/16 02:52:10;;;;;;;27.30;25.37;;;17.00;68.10;;;;;;5133482;27;20463;-71
2022/05/16 02:54:37;;;;;;;27.00;25.23;;;17.00;68.20;;;;;;5142281;27;20470;-71
2022/05/16 02:57:05;;;;;;;26.30;24.80;;;17.10;68.10;;;;;;5135895;27;20459;-71
2022/05/16 02:59:34;;;;;;;26.40;24.90;;;17.10;67.70;;;;;;5139112;27;20455;-71
2022/05/16 03:02:01;;;;;;;27.20;25.60;;;17.10;67.80;;;;;;5134761;27;20459;-71
2022/05/16 03:04:28;;;;;;;29.83;28.30;;;17.20;67.70;;;;;;5142801;27;20477;-71
2022/05/16 03:06:56;;;;;;;28.43;26.50;;;17.20;67.90;;;;;;5135513;27;20994;-71
2022/05/16 03:09:23;;;;;;;28.17;26.17;;;17.20;68.00;;;;;;5144939;27;20534;-71
2022/05/16 03:11:51;;;;;;;26.67;25.00;;;17.20;68.10;;;;;;5144504;27;20518;-71
2022/05/16 03:14:18;;;;;;;28.30;26.63;;;17.20;67.90;;;;;;5132943;27;20482;-71
2022/05/16 03:16:46;;;;;;;27.63;26.10;;;17.20;67.90;;;;;;5147265;27;20542;-71
2022/05/16 03:19:13;;;;;;;26.97;25.43;;;17.20;67.90;;;;;;5132165;27;20451;-71
2022/05/16 03:21:41;;;;;;;27.23;25.37;;;17.30;67.70;;;;;;5142461;27;20451;-71
2022/05/16 03:24:09;;;;;;;25.90;24.50;;;17.20;67.90;;;;;;5141151;27;21257;-71
2022/05/16 03:26:36;;;;;;;27.13;25.53;;;17.20;67.80;;;;;;5148905;27;20455;-71
2022/05/16 03:29:06;;;;;;;31.03;28.63;;;17.30;67.80;;;;;;5149832;27;20507;-71
2022/05/16 03:31:33;;;;;;;28.03;26.33;;;17.30;67.90;;;;;;5149486;27;20557;-71
2022/05/16 03:34:01;;;;;;;31.40;29.40;;;17.40;67.90;;;;;;5139010;27;20481;-71
2022/05/16 03:36:28;;;;;;;28.10;26.43;;;17.40;67.80;;;;;;5138985;27;20452;-71
2022/05/16 03:41:41;;;;;;;31.33;29.53;;;17.50;67.50;;;;;;5143222;27;20797;-71
2022/05/16 03:44:08;;;;;;;27.70;26.00;;;17.50;67.70;;;;;;5151682;27;20522;-71
2022/05/16 03:46:35;;;;;;;27.30;25.70;;;17.50;67.70;;;;;;5143049;27;21237;-72
2022/05/16 03:49:04;;;;;;;27.97;26.27;;;17.50;67.80;;;;;;5149662;27;20447;-71
2022/05/16 03:51:31;;;;;;;27.47;25.57;;;17.60;67.60;;;;;;5141353;27;21007;-71
2022/05/16 03:53:58;;;;;;;26.73;25.20;;;17.70;67.30;;;;;;5139537;27;21281;-71
2022/05/16 03:56:27;;;;;;;28.57;26.67;;;17.70;67.60;;;;;;5138841;27;20535;-71
2022/05/16 03:58:55;;;;;;;27.43;26.03;;;17.70;67.80;;;;;;5143104;27;20460;-71
2022/05/16 04:01:23;;;;;;;28.17;26.27;;;17.70;67.80;;;;;;5131687;27;20530;-72
2022/05/16 04:03:50;;;;;;;27.80;25.90;;;17.70;67.80;;;;;;5141074;27;20490;-71
2022/05/16 04:06:19;;;;;;;28.10;26.40;;;17.70;67.60;;;;;;5133718;27;20457;-71
2022/05/16 04:08:47;;;;;;;27.50;25.93;;;17.80;67.30;;;;;;5137797;27;20973;-71
2022/05/16 04:11:17;;;;;;;28.27;26.67;;;17.80;67.40;;;;;;5149269;27;21015;-71
2022/05/16 04:13:44;;;;;;;27.00;25.40;;;17.80;67.40;;;;;;5145930;27;20538;-71
2022/05/16 04:16:11;;;;;;;27.43;25.73;;;17.90;67.50;;;;;;5149120;27;20550;-71
2022/05/16 04:18:38;;;;;;;28.07;26.53;;;17.90;67.60;;;;;;5137584;27;20443;-71
2022/05/16 04:21:05;;;;;;;28.13;26.43;;;17.90;67.90;;;;;;5150004;27;20453;-71
2022/05/16 04:23:34;;;;;;;31.50;29.80;;;17.90;68.30;;;;;;5148745;27;20458;-71
2022/05/16 04:26:01;;;;;;;27.80;26.30;;;17.90;69.00;;;;;;5134722;27;20488;-70
2022/05/16 04:28:28;;;;;;;26.80;25.20;;;17.90;69.50;;;;;;5130785;27;20486;-72
2022/05/16 04:30:55;;;;;;;29.03;27.33;;;18.10;68.90;;;;;;5137261;27;20220;-72
2022/05/16 04:33:22;;;;;;;29.10;27.30;;;18.10;68.70;;;;;;5142557;27;20469;-71
2022/05/16 04:35:49;;;;;;;27.63;26.10;;;18.10;69.00;;;;;;5137442;27;20493;-73
2022/05/16 04:38:15;;;;;;;28.07;26.53;;;18.10;69.20;;;;;;5139432;27;20458;-71
2022/05/16 04:43:25;;;;;;;28.40;26.80;;;18.10;70.50;;;;;;5146544;27;20447;-73
2022/05/16 04:45:52;;;;;;;27.87;26.10;;;18.10;71.20;;;;;;5136107;27;20810;-71
2022/05/16 04:48:19;;;;;;;27.83;26.13;;;18.10;71.60;;;;;;5141666;27;20514;-72
2022/05/16 04:50:46;;;;;;;28.30;26.50;;;18.10;71.90;;;;;;5137226;27;20822;-71
2022/05/16 04:53:12;;;;;;;29.50;27.80;;;18.10;72.00;;;;;;5140652;27;20551;-72
2022/05/16 04:55:40;;;;;;;29.23;27.53;;;18.10;72.40;;;;;;5142634;27;20472;-71
2022/05/16 04:58:09;;;;;;;29.47;27.57;;;18.20;72.40;;;;;;5138288;27;21242;-70
2022/05/16 05:00:36;;;;;;;29.57;27.70;;;18.20;72.70;;;;;;5139220;27;20553;-70
2022/05/16 05:03:02;;;;;;;30.57;28.47;;;18.20;72.80;;;;;;5143886;27;20456;-71
2022/05/16 05:05:29;;;;;;;29.07;27.40;;;18.30;73.00;;;;;;5146309;27;20475;-71
2022/05/16 05:07:56;;;;;;;28.00;26.33;;;18.30;73.10;;;;;;5139552;27;20467;-71
2022/05/16 05:16:02;;;;;;;30.60;28.73;;;18.50;73.00;;;;;;5138405;27;21240;-72
2022/05/16 05:18:29;;;;;;;27.37;25.80;;;18.50;73.00;;;;;;5141746;27;20280;-70
2022/05/16 05:20:56;;;;;;;30.80;28.97;;;18.70;72.70;;;;;;5144071;27;20538;-70
2022/05/16 05:23:23;;;;;;;28.67;27.00;;;18.70;72.30;;;;;;5131123;27;21084;-70
2022/05/16 05:25:50;;;;;;;28.50;26.90;;;18.80;72.10;;;;;;5141275;27;20562;-71
2022/05/16 05:28:19;;;;;;;29.30;27.60;;;18.90;71.90;;;;;;5143938;27;20500;-71
2022/05/16 05:30:47;;;;;;;29.03;27.30;;;19.00;71.30;;;;;;5144290;27;20527;-70
2022/05/16 05:33:14;;;;;;;30.40;28.60;;;19.10;71.10;;;;;;5131135;27;20447;-70
2022/05/16 05:35:40;;;;;;;34.97;32.77;;;19.10;71.00;;;;;;5148204;27;20561;-71
2022/05/16 05:38:09;;;;;;;34.90;32.80;;;19.30;70.50;;;;;;5134291;27;20797;-71
2022/05/16 05:40:37;;;;;;;32.33;30.33;;;19.30;70.50;;;;;;5131181;27;20456;-71
2022/05/16 05:43:05;;;;;;;32.00;29.70;;;19.20;71.00;;;;;;5139123;27;20462;-71
2022/05/16 05:45:34;;;;;;;32.80;30.80;;;19.30;70.60;;;;;;5149497;27;20478;-71
2022/05/16 05:48:01;;;;;;;32.70;30.50;;;19.40;70.40;;;;;;5145523;27;20550;-71
2022/05/16 05:50:28;;;;;;;34.50;32.17;;;19.40;70.30;;;;;;5146060;27;20881;-71
2022/05/16 05:52:58;;;;;;;31.40;29.40;;;19.60;70.10;;;;;;5144933;27;20479;-72
2022/05/16 05:55:26;;;;;;;30.23;28.50;;;19.60;69.80;;;;;;5141917;27;20563;-71
2022/05/16 05:57:53;;;;;;;30.73;29.03;;;19.80;69.50;;;;;;5149781;27;20455;-72
2022/05/16 06:00:20;;;;;;;29.50;27.80;;;19.80;69.50;;;;;;5147251;27;20481;-71
2022/05/16 06:02:49;;;;;;;30.10;28.30;;;19.90;69.70;;;;;;5144981;27;20459;-71
2022/05/16 06:05:18;;;;;;;32.77;30.80;;;20.00;69.20;;;;;;5143086;27;20468;-71
2022/05/16 06:07:45;;;;;;;31.37;29.57;;;20.20;68.50;;;;;;5143532;27;20910;-72
2022/05/16 06:10:13;;;;;;;30.50;28.70;;;20.30;68.20;;;;;;5149149;27;20455;-71
2022/05/16 06:12:40;;;;;;;30.57;28.77;;;20.50;67.80;;;;;;5143611;27;20470;-71
2022/05/16 06:15:09;;;;;;;29.90;28.07;;;20.60;67.60;;;;;;5146752;27;20475;-71
2022/05/16 06:17:36;;;;;;;29.67;27.87;;;20.60;67.90;;;;;;5143499;27;20491;-71
2022/05/16 06:20:05;;;;;;;29.70;27.93;;;20.70;67.80;;;;;;5147577;27;20455;-71
2022/05/16 06:22:36;;;;;;;30.20;28.30;;;20.70;67.60;;;;;;5134909;27;20948;-71
2022/05/16 06:27:49;;;;;;;31.50;29.60;;;20.80;67.20;;;;;;5145677;27;20489;-71
2022/05/16 06:30:19;;;;;;;29.00;27.20;;;20.70;67.50;;;;;;5147240;27;20538;-72
2022/05/16 06:32:46;;;;;;;30.40;28.70;;;20.80;67.30;;;;;;5134942;27;20997;-73
2022/05/16 06:35:14;;;;;;;30.23;28.23;;;21.00;67.00;;;;;;5143883;27;20479;-74
2022/05/16 06:37:41;;;;;;;29.77;27.87;;;21.10;66.70;;;;;;5147061;27;20439;-73
2022/05/16 06:40:09;;;;;;;30.90;28.90;;;21.20;66.70;;;;;;5145187;27;20456;-72
2022/05/16 06:42:36;;;;;;;31.13;28.93;;;21.40;65.80;;;;;;5141707;27;20451;-73
2022/05/16 06:45:04;;;;;;;30.53;28.60;;;21.50;65.30;;;;;;5145815;27;20475;-73
2022/05/16 06:47:31;;;;;;;31.00;29.20;;;21.70;64.90;;;;;;5149137;27;20455;-76
2022/05/16 06:49:58;;;;;;;30.60;28.80;;;21.90;63.80;;;;;;5144598;27;20534;-72
2022/05/16 06:52:27;;;;;;;32.10;30.10;;;22.30;62.90;;;;;;5146487;27;20482;-72
2022/05/16 06:54:54;;;;;;;30.20;28.40;;;22.60;62.40;;;;;;5150451;27;20478;-74
2022/05/16 06:57:21;;;;;;;29.80;28.20;;;22.90;61.60;;;;;;5151808;27;20466;-74
2022/05/16 06:59:48;;;;;;;33.03;30.93;;;23.20;60.90;;;;;;5147801;27;20550;-75
2022/05/16 07:02:15;;;;;;;32.07;29.90;;;23.40;60.70;;;;;;5147313;27;20451;-73
2022/05/16 07:04:42;;;;;;;31.90;30.03;;;23.60;60.50;;;;;;5150510;27;20585;-73
2022/05/16 07:07:10;;;;;;;30.50;28.70;;;23.80;60.00;;;;;;5145457;27;20479;-73
2022/05/16 07:09:39;;;;;;;31.33;29.53;;;24.00;59.60;;;;;;5147361;27;20458;-72
2022/05/16 07:12:07;;;;;;;29.47;27.67;;;24.30;59.20;;;;;;5150797;27;20471;-72
2022/05/16 07:14:34;;;;;;;30.60;28.80;;;24.50;58.70;;;;;;5145090;27;20507;-72
2022/05/16 07:17:01;;;;;;;30.50;28.53;;;24.70;58.50;;;;;;5142280;27;20471;-72
2022/05/16 07:19:31;;;;;;;32.13;30.20;;;24.90;58.20;;;;;;5151936;27;20535;-73
2022/05/16 07:21:58;;;;;;;32.60;30.60;;;25.20;57.70;;;;;;5147418;27;21048;-73
2022/05/16 07:24:25;;;;;;;30.77;28.80;;;25.40;57.10;;;;;;5148343;27;20484;-73
2022/05/16 07:29:38;;;;;;;30.83;28.93;;;25.90;56.50;;;;;;5148607;27;20468;-72
2022/05/16 07:32:06;;;;;;;32.93;30.83;;;26.10;56.30;;;;;;5147299;27;20479;-72
2022/05/16 07:34:33;;;;;;;31.70;29.80;;;26.20;56.30;;;;;;5137297;27;20995;-76
2022/05/16 07:37:00;;;;;;;32.50;30.20;;;26.30;55.90;;;;;;5148513;27;20456;-74
2022/05/16 07:39:27;;;;;;;31.13;29.20;;;26.30;55.70;;;;;;5149388;27;20449;-73
2022/05/16 07:41:56;;;;;;;33.30;31.20;;;26.30;55.50;;;;;;5147563;27;20578;-72
2022/05/16 07:44:23;;;;;;;33.37;31.13;;;26.30;56.40;;;;;;5145984;27;20487;-72
2022/05/16 07:46:50;;;;;;;31.53;29.70;;;26.20;56.40;;;;;;5143744;27;20483;-73
2022/05/16 07:49:18;;;;;;;33.10;31.20;;;26.10;56.10;;;;;;5148772;27;20450;-74
2022/05/16 07:51:45;;;;;;;32.03;30.10;;;26.10;56.60;;;;;;5150367;27;20839;-72
2022/05/16 07:54:11;;;;;;;31.27;29.40;;;26.00;56.40;;;;;;5137016;27;20472;-73
2022/05/16 07:56:39;;;;;;;32.87;30.60;;;25.90;56.70;;;;;;5142444;27;20456;-72
2022/05/16 07:59:09;;;;;;;33.67;31.40;;;25.80;56.80;;;;;;5149005;27;20466;-72
2022/05/16 08:01:36;;;;;;;32.30;30.40;;;25.80;57.40;;;;;;5148334;27;20457;-75
2022/05/16 08:04:04;;;;;;;32.63;30.43;;;25.80;58.00;;;;;;5141253;27;20930;-72
2022/05/16 08:06:31;;;;;;;33.03;30.40;;;25.70;59.60;;;;;;5130802;27;20875;-71
2022/05/16 08:11:43;;;;;;;34.67;32.47;;;25.40;61.80;;;;;;5148177;27;20620;-72
2022/05/16 08:14:12;;;;;;;33.10;31.20;;;25.40;62.40;;;;;;5151094;27;20477;-71
2022/05/16 08:16:40;;;;;;;35.17;32.67;;;25.40;62.70;;;;;;5145824;27;20466;-71
2022/05/16 08:19:07;;;;;;;33.20;31.20;;;25.30;63.20;;;;;;5138223;27;20464;-72
2022/05/16 08:21:34;;;;;;;32.40;30.40;;;25.20;63.30;;;;;;5151191;27;20551;-72
2022/05/16 08:24:02;;;;;;;33.20;31.20;;;25.10;63.70;;;;;;5149469;27;20494;-72
2022/05/16 08:26:29;;;;;;;33.40;31.30;;;25.00;63.80;;;;;;5146122;27;21067;-72
2022/05/16 08:28:56;;;;;;;36.43;33.93;;;25.10;63.90;;;;;;5149287;27;20542;-72
2022/05/16 08:31:28;;;;;;;33.63;31.40;;;25.10;64.20;;;;;;5150111;27;20553;-72
2022/05/16 08:33:55;;;;;;;34.07;31.73;;;25.10;64.70;;;;;;5148848;27;20455;-73
2022/05/16 08:41:55;;;;;;;32.90;31.00;;;25.20;64.50;;;;;;5150606;27;20447;-72
2022/05/16 08:44:28;;;;;;;31.20;29.30;;;25.30;62.90;;;;;;5145555;27;20477;-71
2022/05/16 08:47:10;;;;;;;31.40;29.50;;;25.30;63.20;;;;;;5135860;27;20534;-72
2022/05/16 08:49:42;;;;;;;34.13;31.93;;;25.50;62.50;;;;;;5141038;27;20488;-71
2022/05/16 08:52:16;;;;;;;31.43;29.27;;;25.60;62.40;;;;;;5151071;27;20472;-72
2022/05/16 08:54:50;;;;;;;33.37;31.03;;;25.80;62.60;;;;;;5139618;27;21285;-75
2022/05/16 08:57:26;;;;;;;32.93;30.73;;;26.00;62.40;;;;;;5134661;27;20513;-72
2022/05/16 08:59:59;;;;;;;32.70;30.60;;;26.20;61.80;;;;;;5140641;27;20548;-73
2022/05/16 09:02:30;;;;;;;34.00;31.83;;;26.50;61.20;;;;;;5150404;27;20472;-74
2022/05/16 09:05:05;;;;;;;33.83;31.60;;;26.70;59.70;;;;;;5145018;27;20501;-72
2022/05/16 09:07:38;;;;;;;33.03;30.93;;;27.00;59.60;;;;;;5151115;27;20468;-72
2022/05/16 09:10:09;;;;;;;31.60;29.57;;;27.20;58.60;;;;;;5137592;27;20982;-71
2022/05/16 09:12:44;;;;;;;32.00;30.00;;;27.40;57.50;;;;;;5150561;27;20518;-72
2022/05/16 09:15:19;;;;;;;31.83;29.40;;;27.50;56.40;;;;;;5131000;27;20504;-72
2022/05/16 09:18:08;;;;;;;32.83;30.60;;;27.60;56.30;;;;;;5131044;27;21007;-73
2022/05/16 09:20:45;;;;;;;31.30;29.30;;;27.70;55.30;;;;;;5147543;27;20457;-73
2022/05/16 09:23:32;;;;;;;36.13;33.80;;;27.90;54.80;;;;;;5144856;27;20891;-72
2022/05/16 09:26:05;;;;;;;31.00;29.00;;;28.10;53.60;;;;;;5149096;27;20479;-72
2022/05/16 09:28:35;;;;;;;32.87;30.67;;;28.20;52.40;;;;;;5141633;27;20466;-72
2022/05/16 09:31:10;;;;;;;32.73;30.50;;;28.20;52.20;;;;;;5149363;27;20475;-72
2022/05/16 09:33:44;;;;;;;34.20;31.90;;;28.20;51.90;;;;;;5144643;27;20482;-72
2022/05/16 09:36:14;;;;;;;34.47;31.67;;;28.40;52.10;;;;;;5135848;27;20461;-71
2022/05/16 09:38:44;;;;;;;32.83;30.63;;;28.50;51.00;;;;;;5135433;27;20949;-73
2022/05/16 09:41:17;;;;;;;31.90;29.80;;;28.60;51.40;;;;;;5134100;27;20451;-73
2022/05/16 09:43:51;;;;;;;33.80;30.83;;;28.50;49.30;;;;;;5149412;27;20539;-73
2022/05/16 09:46:31;;;;;;;32.40;30.10;;;27.90;50.10;;;;;;5150020;27;20667;-72
2022/05/16 09:49:22;;;;;;;35.17;32.67;;;27.40;51.30;;;;;;5137894;27;20447;-73
2022/05/16 09:51:51;;;;;;;32.77;30.60;;;27.10;52.10;;;;;;5126001;27;20951;-72
2022/05/16 09:54:28;;;;;;;34.80;32.37;;;26.90;52.00;;;;;;5131777;27;20482;-72
2022/05/16 09:57:12;;;;;;;33.77;31.30;;;26.70;52.80;;;;;;5149560;27;20460;-73
2022/05/16 09:59:43;;;;;;;34.60;32.20;;;26.60;52.70;;;;;;5148612;27;20457;-74
2022/05/16 10:02:15;;;;;;;35.73;33.00;;;26.50;53.30;;;;;;5134901;27;20445;-72
2022/05/16 10:04:46;;;;;;;32.43;30.47;;;26.60;53.50;;;;;;5138312;27;20469;-72
2022/05/16 10:07:14;;;;;;;34.80;32.27;;;26.90;52.80;;;;;;5144211;27;20460;-71
2022/05/16 10:09:44;;;;;;;33.20;31.10;;;26.90;52.10;;;;;;5149925;27;20449;-71
2022/05/16 10:12:14;;;;;;;32.60;30.50;;;27.00;52.60;;;;;;5148223;27;20485;-72
2022/05/16 10:14:42;;;;;;;34.30;32.00;;;27.30;52.20;;;;;;5145401;27;20476;-73
2022/05/16 10:17:13;;;;;;;36.17;33.97;;;27.50;52.10;;;;;;5148152;27;20452;-73
2022/05/16 10:19:41;;;;;;;33.70;31.50;;;27.80;51.20;;;;;;5142049;27;20458;-73
2022/05/16 10:22:15;;;;;;;33.30;31.10;;;28.00;50.10;;;;;;5143124;27;20536;-74
2022/05/16 10:24:47;;;;;;;33.50;31.17;;;28.00;50.40;;;;;;5141447;27;21366;-75
2022/05/16 10:27:28;;;;;;;34.30;32.00;;;28.00;50.20;;;;;;5145064;27;20463;-73
2022/05/16 10:29:58;;;;;;;33.40;30.93;;;28.00;50.20;;;;;;5143464;27;21030;-76
2022/05/16 10:35:22;;;;;;;33.37;31.10;;;28.00;50.30;;;;;;5143388;27;20538;-75
2022/05/16 10:37:56;;;;;;;32.83;30.43;;;27.80;51.00;;;;;;5152873;27;20446;-74
2022/05/16 10:40:30;;;;;;;34.07;31.80;;;27.40;51.60;;;;;;5141399;27;20454;-75
2022/05/16 10:43:14;;;;;;;34.47;32.10;;;27.10;52.10;;;;;;5152236;27;21191;-74
2022/05/16 10:45:47;;;;;;;35.97;33.73;;;26.60;52.60;;;;;;5152503;27;20461;-74
2022/05/16 10:48:24;;;;;;;34.27;32.03;;;25.90;54.60;;;;;;5151341;27;20470;-72
2022/05/16 10:50:56;;;;;;;35.33;32.53;;;25.90;55.00;;;;;;5146039;27;20459;-73
2022/05/16 10:53:29;;;;;;;34.00;31.90;;;25.70;55.30;;;;;;5153179;27;20467;-73
2022/05/16 10:56:06;;;;;;;34.10;31.83;;;25.90;55.30;;;;;;5147239;27;20883;-72
2022/05/16 10:58:47;;;;;;;31.53;29.20;;;26.10;54.80;;;;;;5149113;27;20464;-74
2022/05/16 11:01:20;;;;;;;31.10;29.00;;;26.20;53.80;;;;;;5149926;27;20466;-72
2022/05/16 11:04:33;;;;;;;31.07;28.43;;;25.90;53.80;;;;;;5151786;27;20457;-75
2022/05/16 11:07:11;;;;;;;31.57;29.70;;;25.70;54.90;;;;;;5148273;27;20554;-72
2022/05/16 11:09:50;;;;;;;33.43;31.23;;;25.90;54.60;;;;;;5150062;27;20472;-73
2022/05/16 11:12:26;;;;;;;30.03;28.03;;;26.20;54.60;;;;;;5143877;27;20499;-73
2022/05/16 11:15:01;;;;;;;32.00;29.50;;;26.30;53.60;;;;;;5144494;27;20480;-73
2022/05/16 11:17:35;;;;;;;33.90;31.60;;;25.90;54.40;;;;;;5148801;27;20452;-73
2022/05/16 11:20:09;;;;;;;31.30;29.30;;;25.80;55.50;;;;;;5146176;27;20535;-72
2022/05/16 11:22:40;;;;;;;32.53;30.40;;;25.90;55.70;;;;;;5151115;27;20965;-72
2022/05/16 11:25:13;;;;;;;32.03;29.80;;;25.80;56.00;;;;;;5152198;27;20978;-73
2022/05/16 11:27:52;;;;;;;30.77;28.77;;;25.50;56.70;;;;;;5151533;27;21476;-74
2022/05/16 11:30:29;;;;;;;32.00;29.93;;;25.50;57.20;;;;;;5144131;27;21170;-73
2022/05/16 11:33:06;;;;;;;30.67;28.87;;;25.30;56.90;;;;;;5149412;27;20530;-71
2022/05/16 11:35:39;;;;;;;31.17;29.10;;;25.00;56.00;;;;;;5150794;27;20479;-71
2022/05/16 11:38:15;;;;;;;29.73;27.93;;;24.80;57.10;;;;;;5148362;27;20470;-73
2022/05/16 11:40:51;;;;;;;30.53;28.53;;;24.60;57.50;;;;;;5139553;27;20478;-73
2022/05/16 11:43:24;;;;;;;31.77;29.57;;;24.50;57.70;;;;;;5146325;27;20495;-72
2022/05/16 11:46:27;;;;;;;30.10;28.30;;;24.60;57.40;;;;;;5148234;27;20471;-71
2022/05/16 11:49:05;;;;;;;29.63;27.93;;;24.70;56.90;;;;;;5140908;27;21040;-72
2022/05/16 11:51:52;;;;;;;30.97;28.97;;;24.70;56.60;;;;;;5141504;27;20450;-71
2022/05/16 11:54:23;;;;;;;28.73;26.90;;;24.60;56.30;;;;;;5149178;27;20484;-73
2022/05/16 12:02:51;;;;;;;30.97;28.93;;;23.90;56.00;;;;;;5137426;27;20478;-68
2022/05/16 12:05:34;;;;;;;38.67;36.57;;;23.70;56.20;;;;;;5142085;27;20602;-72
2022/05/16 16:09:54;;;;;;;28.83;26.83;;;23.90;65.40;;;;;;5098563;27;20566;-73
2022/05/16 16:12:21;;;;;;;27.77;26.27;;;25.00;63.00;;;;;;5082256;28;20473;-72
2022/05/16 16:14:48;;;;;;;29.97;28.27;;;26.50;59.40;;;;;;5078259;28;20832;-72
2022/05/16 16:17:15;;;;;;;30.30;28.50;;;27.90;55.10;;;;;;5072188;28;20462;-73
2022/05/16 16:19:44;;;;;;;28.67;26.90;;;28.80;52.30;;;;;;5087505;28;20535;-73
2022/05/16 16:22:12;;;;;;;28.40;26.60;;;29.70;50.50;;;;;;5083445;28;20483;-73
2022/05/16 16:24:39;;;;;;;28.13;26.53;;;30.60;48.20;;;;;;5083961;28;20492;-74
2022/05/16 16:27:10;;;;;;;31.17;29.40;;;30.70;47.70;;;;;;5078757;28;20450;-73
2022/05/16 16:29:37;;;;;;;27.90;26.30;;;31.00;47.40;;;;;;5074267;28;21062;-73
2022/05/16 16:32:06;;;;;;;27.30;25.60;;;31.70;46.30;;;;;;5087542;28;20948;-71
2022/05/16 16:34:34;;;;;;;29.00;27.30;;;33.10;44.00;;;;;;5071216;28;20482;-72
2022/05/16 16:37:02;;;;;;;27.67;25.87;;;34.60;41.60;;;;;;5082970;28;20453;-69
2022/05/16 16:39:29;;;;;;;31.70;30.00;;;34.40;41.10;;;;;;5075719;28;20449;-69
2022/05/16 16:41:56;;;;;;;27.73;26.03;;;34.40;40.90;;;;;;5072153;28;20466;-70
2022/05/16 16:44:24;;;;;;;29.60;27.40;;;34.20;41.30;;;;;;5079803;28;20857;-69
2022/05/16 16:46:52;;;;;;;30.13;28.23;;;32.60;43.00;;;;;;5076237;28;20827;-70
2022/05/16 16:49:20;;;;;;;30.00;28.23;;;31.80;44.60;;;;;;5079435;28;20474;-69
2022/05/16 16:57:29;;;;;;;29.97;28.07;;;30.50;46.90;;;;;;5079821;28;20831;-69
2022/05/16 17:00:00;;;;;;;28.30;26.60;;;28.40;50.20;;;;;;5075418;28;20478;-69
2022/05/16 17:02:31;;;;;;;29.60;27.47;;;27.60;52.80;;;;;;5071457;28;20609;-71
2022/05/16 17:05:00;;;;;;;27.50;25.80;;;28.70;50.80;;;;;;5073627;28;20536;-70
2022/05/16 17:07:29;;;;;;;28.50;26.80;;;30.90;47.40;;;;;;5082228;28;21005;-71
2022/05/16 17:09:59;;;;;;;27.60;25.90;;;31.90;44.10;;;;;;5069406;28;20852;-70
2022/05/16 17:12:26;;;;;;;28.67;26.67;;;32.00;44.60;;;;;;5086681;28;20461;-70
2022/05/16 17:14:54;;;;;;;27.30;25.70;;;32.50;43.50;;;;;;5075404;28;20487;-70
2022/05/16 17:17:22;;;;;;;27.20;25.47;;;32.50;43.50;;;;;;5080618;28;20923;-70
2022/05/16 17:19:49;;;;;;;30.70;28.80;;;33.80;41.90;;;;;;5071262;28;20453;-69
2022/05/16 17:22:18;;;;;;;27.67;25.93;;;34.20;41.20;;;;;;5062512;28;21023;-70
2022/05/16 17:24:46;;;;;;;28.67;26.97;;;34.80;40.20;;;;;;5053252;28;20479;-69
2022/05/16 17:27:13;;;;;;;28.23;26.53;;;35.10;39.90;;;;;;5053969;28;20462;-69
2022/05/16 17:29:40;;;;;;;28.70;27.10;;;35.40;39.10;;;;;;5055048;28;20839;-70